createdAt,value
2017-11-15T00:01:45.955Z,33.03
2017-11-15T00:04:12.257Z,27.73
2017-11-15T00:06:39.583Z,30.50
2017-11-15T00:09:07.530Z,27.20
2017-11-15T00:11:34.436Z,29.35
2017-11-15T00:14:01.752Z,29.55
2017-11-15T00:16:29.257Z,32.78
2017-11-15T00:18:57.598Z,30.45
2017-11-15T00:21:24.644Z,28.80
2017-11-15T00:23:51.430Z,32.42
2017-11-15T00:26:18.201Z,26.60
2017-11-15T00:28:44.589Z,24.33
2017-11-15T00:31:12.584Z,27.60
2017-11-15T00:33:40.102Z,27.27
2017-11-15T00:36:07.946Z,28.77
2017-11-15T00:38:35.734Z,28.52
2017-11-15T00:41:02.618Z,34.13
2017-11-15T00:43:29.303Z,26.70
2017-11-15T00:45:56.281Z,30.35
2017-11-15T00:48:23.552Z,34.40
2017-11-15T00:50:50.002Z,32.20
2017-11-15T00:53:17.456Z,34.38
2017-11-15T00:55:44.485Z,30.08
2017-11-15T00:58:10.795Z,34.22
2017-11-15T01:00:37.959Z,24.48
2017-11-15T01:03:04.804Z,26.37
2017-11-15T01:05:31.327Z,31.52
2017-11-15T01:07:57.594Z,28.75
2017-11-15T01:10:24.815Z,27.60
2017-11-15T01:12:51.628Z,33.17
2017-11-15T01:15:18.415Z,42.38
2017-11-15T01:17:46.382Z,36.97
2017-11-15T01:20:13.124Z,45.78
2017-11-15T01:22:39.350Z,40.15
2017-11-15T01:25:05.617Z,40.55
2017-11-15T01:27:32.398Z,36.72
2017-11-15T01:29:59.915Z,39.08
2017-11-15T01:32:26.710Z,38.08
2017-11-15T01:34:54.487Z,39.75
2017-11-15T01:37:21.716Z,43.22
2017-11-15T01:39:48.507Z,41.50
2017-11-15T01:42:15.999Z,38.75
2017-11-15T01:44:43.279Z,48.75
2017-11-15T01:47:11.030Z,41.47
2017-11-15T01:49:37.483Z,36.83
2017-11-15T01:52:04.717Z,37.78
2017-11-15T01:54:31.052Z,45.35
2017-11-15T01:56:57.337Z,42.45
2017-11-15T01:59:23.659Z,39.85
2017-11-15T02:01:49.924Z,43.17
2017-11-15T02:04:16.883Z,47.35
2017-11-15T02:06:44.051Z,46.08
2017-11-15T02:09:11.383Z,46.92
2017-11-15T02:11:37.623Z,38.92
2017-11-15T02:14:04.530Z,45.40
2017-11-15T02:16:31.826Z,44.63
2017-11-15T02:18:58.043Z,51.37
2017-11-15T02:21:25.300Z,35.50
2017-11-15T02:23:53.044Z,43.30
2017-11-15T02:26:19.308Z,45.28
2017-11-15T02:28:46.101Z,45.20
2017-11-15T02:31:14.411Z,49.17
2017-11-15T02:33:41.297Z,45.33
2017-11-15T02:36:08.293Z,53.45
2017-11-15T02:38:35.304Z,48.00
2017-11-15T02:41:02.598Z,54.50
2017-11-15T02:43:29.304Z,47.42
2017-11-15T02:45:56.134Z,50.75
2017-11-15T02:48:23.397Z,47.88
2017-11-15T02:50:50.999Z,42.80
2017-11-15T02:53:17.516Z,46.37
2017-11-15T02:55:45.811Z,52.33
2017-11-15T02:58:13.827Z,45.92
2017-11-15T03:00:41.392Z,54.72
2017-11-15T03:03:08.511Z,53.80
2017-11-15T03:05:35.518Z,47.65
2017-11-15T03:08:01.772Z,52.47
2017-11-15T03:10:28.422Z,53.10
2017-11-15T03:12:55.886Z,47.10
2017-11-15T03:15:22.977Z,50.45
2017-11-15T03:17:49.692Z,52.28
2017-11-15T03:20:16.686Z,46.45
2017-11-15T03:22:43.189Z,49.70
2017-11-15T03:25:10.179Z,48.75
2017-11-15T03:30:07.869Z,49.95
2017-11-15T03:32:35.635Z,60.78
2017-11-15T03:35:02.131Z,54.25
2017-11-15T03:37:28.334Z,54.47
2017-11-15T03:39:55.584Z,52.95
2017-11-15T03:42:22.542Z,65.07
2017-11-15T03:44:48.803Z,50.35
2017-11-15T03:47:16.350Z,55.42
2017-11-15T03:49:43.389Z,48.80
2017-11-15T03:52:09.600Z,45.40
2017-11-15T03:54:35.973Z,65.22
2017-11-15T03:57:03.001Z,44.35
2017-11-15T03:59:29.225Z,60.25
2017-11-15T04:01:56.060Z,48.15
2017-11-15T04:04:24.105Z,45.30
2017-11-15T04:06:51.619Z,48.87
2017-11-15T04:09:18.601Z,51.33
2017-11-15T04:11:45.640Z,46.75
2017-11-15T04:14:13.174Z,51.13
2017-11-15T04:16:39.414Z,44.45
2017-11-15T04:19:05.655Z,54.85
2017-11-15T04:21:32.445Z,51.10
2017-11-15T04:23:58.643Z,47.60
2017-11-15T04:26:27.231Z,50.60
2017-11-15T04:28:55.046Z,57.38
2017-11-15T04:31:22.365Z,49.97
2017-11-15T04:33:50.106Z,46.28
2017-11-15T04:36:17.151Z,55.60
2017-11-15T04:38:44.406Z,49.67
2017-11-15T04:41:12.046Z,44.97
2017-11-15T04:43:39.549Z,45.17
2017-11-15T04:46:07.567Z,55.10
2017-11-15T04:48:33.773Z,45.75
2017-11-15T04:51:00.576Z,45.58
2017-11-15T04:53:27.249Z,53.45
2017-11-15T04:55:53.447Z,50.65
2017-11-15T04:58:19.666Z,45.22
2017-11-15T05:00:45.895Z,43.13
2017-11-15T05:03:12.659Z,51.45
2017-11-15T05:05:39.024Z,54.10
2017-11-15T05:08:06.391Z,50.83
2017-11-15T05:10:34.380Z,55.92
2017-11-15T05:13:01.901Z,55.78
2017-11-15T05:15:28.155Z,54.60
2017-11-15T05:17:55.636Z,54.10
2017-11-15T05:20:23.156Z,50.10
2017-11-15T05:22:49.720Z,49.40
2017-11-15T05:25:16.797Z,45.50
2017-11-15T05:27:43.222Z,54.70
2017-11-15T05:30:10.256Z,44.40
2017-11-15T05:32:36.547Z,43.22
2017-11-15T05:35:03.838Z,38.08
2017-11-15T05:37:30.075Z,45.60
2017-11-15T05:39:57.226Z,48.17
2017-11-15T05:42:23.451Z,42.83
2017-11-15T05:44:50.622Z,46.17
2017-11-15T05:47:17.364Z,50.35
2017-11-15T05:49:44.131Z,46.35
2017-11-15T05:52:10.848Z,52.40
2017-11-15T05:54:37.571Z,49.40
2017-11-15T05:57:05.639Z,38.70
2017-11-15T05:59:32.996Z,42.15
2017-11-15T06:01:59.553Z,42.72
2017-11-15T06:04:26.706Z,45.33
2017-11-15T06:06:55.299Z,46.78
2017-11-15T06:09:21.516Z,42.92
2017-11-15T06:11:48.941Z,50.63
2017-11-15T06:14:16.433Z,36.28
2017-11-15T06:16:43.520Z,37.38
2017-11-15T06:19:11.905Z,34.35
2017-11-15T06:21:38.255Z,39.50
2017-11-15T06:24:05.796Z,47.72
2017-11-15T06:26:32.037Z,45.47
2017-11-15T06:28:58.288Z,50.00
2017-11-15T06:31:24.569Z,40.35
2017-11-15T06:33:52.626Z,45.65
2017-11-15T06:36:18.986Z,47.67
2017-11-15T06:38:46.315Z,50.92
2017-11-15T06:41:14.760Z,44.67
2017-11-15T06:43:41.045Z,48.00
2017-11-15T06:46:08.262Z,49.45
2017-11-15T06:48:35.085Z,48.70
2017-11-15T06:51:01.857Z,41.35
2017-11-15T06:53:29.548Z,44.45
2017-11-15T06:55:56.412Z,40.10
2017-11-15T06:58:23.457Z,51.83
2017-11-15T07:00:50.529Z,44.63
2017-11-15T07:03:16.805Z,46.83
2017-11-15T07:05:43.921Z,53.83
2017-11-15T07:08:10.701Z,45.40
2017-11-15T07:10:37.444Z,50.38
2017-11-15T07:13:04.361Z,52.10
2017-11-15T07:15:31.334Z,48.03
2017-11-15T07:17:57.542Z,53.25
2017-11-15T07:20:26.053Z,43.78
2017-11-15T07:22:53.130Z,45.03
2017-11-15T07:25:20.125Z,41.05
2017-11-15T07:27:46.459Z,43.83
2017-11-15T07:30:12.798Z,40.78
2017-11-15T07:32:39.722Z,46.37
2017-11-15T07:35:07.957Z,43.90
2017-11-15T07:37:34.153Z,45.15
2017-11-15T07:40:00.596Z,49.38
2017-11-15T07:42:27.613Z,42.28
2017-11-15T07:44:53.902Z,41.60
2017-11-15T07:47:20.613Z,35.58
2017-11-15T07:49:47.885Z,50.12
2017-11-15T07:52:14.107Z,46.37
2017-11-15T07:54:40.820Z,46.55
2017-11-15T07:57:07.586Z,45.53
2017-11-15T07:59:34.710Z,41.35
2017-11-15T08:02:01.595Z,46.72
2017-11-15T08:04:27.950Z,47.10
2017-11-15T08:06:54.828Z,50.15
2017-11-15T08:09:21.277Z,45.80
2017-11-15T08:28:04.532Z,47.35
2017-11-15T08:30:31.298Z,47.92
2017-11-15T08:32:59.543Z,44.60
2017-11-15T08:35:27.584Z,48.00
2017-11-15T08:37:55.922Z,47.90
2017-11-15T08:40:23.616Z,43.15
2017-11-15T08:42:50.566Z,45.58
2017-11-15T08:45:17.622Z,39.47
2017-11-15T08:47:44.464Z,41.30
2017-11-15T08:50:10.740Z,39.28
2017-11-15T08:52:38.909Z,43.85
2017-11-15T08:55:07.088Z,37.88
2017-11-15T08:57:34.221Z,37.47
2017-11-15T09:00:01.592Z,40.67
2017-11-15T09:02:29.318Z,43.33
2017-11-15T09:04:56.993Z,37.90
2017-11-15T09:07:24.201Z,40.17
2017-11-15T09:09:50.985Z,37.25
2017-11-15T09:12:18.042Z,39.88
2017-11-15T09:14:45.261Z,36.40
2017-11-15T09:17:11.557Z,34.63
2017-11-15T09:29:23.329Z,39.47
2017-11-15T09:31:51.594Z,39.15
2017-11-15T09:34:18.624Z,42.17
2017-11-15T09:36:44.924Z,38.58
2017-11-15T09:39:11.491Z,43.40
2017-11-15T09:41:38.252Z,38.67
2017-11-15T09:44:06.354Z,45.53
2017-11-15T09:46:33.428Z,43.20
2017-11-15T09:49:01.978Z,40.63
2017-11-15T09:51:29.861Z,36.22
2017-11-15T09:53:56.112Z,38.22
2017-11-15T09:56:23.082Z,39.05
2017-11-15T09:58:49.301Z,39.47
2017-11-15T10:01:16.445Z,40.58
2017-11-15T10:03:42.774Z,38.65
2017-11-15T10:06:10.057Z,40.17
2017-11-15T10:08:37.247Z,46.58
2017-11-15T10:11:05.292Z,39.08
2017-11-15T10:13:32.110Z,39.50
2017-11-15T10:15:58.574Z,41.13
2017-11-15T10:18:25.401Z,46.72
2017-11-15T10:20:53.532Z,38.30
2017-11-15T10:23:21.899Z,40.63
2017-11-15T10:25:49.689Z,39.45
2017-11-15T10:28:16.432Z,39.58
2017-11-15T10:30:43.199Z,36.65
2017-11-15T10:33:10.916Z,36.90
2017-11-15T10:35:39.410Z,33.25
2017-11-15T10:38:06.199Z,35.30
2017-11-15T10:40:33.044Z,37.75
2017-11-15T10:43:00.809Z,35.83
2017-11-15T10:45:28.301Z,46.70
2017-11-15T10:47:54.521Z,37.03
2017-11-15T10:50:21.479Z,39.78
2017-11-15T10:52:48.164Z,43.33
2017-11-15T10:55:15.172Z,52.88
2017-11-15T10:57:42.587Z,36.28
2017-11-15T11:00:09.083Z,36.85
2017-11-15T11:02:36.742Z,40.47
2017-11-15T11:05:03.533Z,41.72
2017-11-15T11:07:30.594Z,36.45
2017-11-15T11:09:59.000Z,32.13
2017-11-15T11:12:25.272Z,40.85
2017-11-15T11:14:52.176Z,40.33
2017-11-15T11:17:18.653Z,40.75
2017-11-15T11:19:46.863Z,33.25
2017-11-15T11:22:13.636Z,38.70
2017-11-15T11:24:40.449Z,34.47
2017-11-15T11:27:07.660Z,32.42
2017-11-15T11:29:34.553Z,36.20
2017-11-15T11:32:00.849Z,32.20
2017-11-15T11:34:28.814Z,33.95
2017-11-15T11:36:55.003Z,34.90
2017-11-15T11:39:21.517Z,32.50
2017-11-15T11:41:47.933Z,30.42
2017-11-15T11:44:15.315Z,33.03
2017-11-15T11:46:42.311Z,41.65
2017-11-15T11:58:54.373Z,38.05
2017-11-15T12:01:21.614Z,38.00
2017-11-15T12:03:47.827Z,35.33
2017-11-15T12:06:14.157Z,38.90
2017-11-15T12:08:40.388Z,35.53
2017-11-15T12:11:06.613Z,40.75
2017-11-15T12:13:32.848Z,41.00
2017-11-15T12:15:59.578Z,36.38
2017-11-15T12:18:25.967Z,36.35
2017-11-15T12:20:53.035Z,36.90
2017-11-15T12:23:19.492Z,39.25
2017-11-15T12:25:45.696Z,40.58
2017-11-15T12:28:12.591Z,35.30
2017-11-15T12:30:39.672Z,29.05
2017-11-15T12:33:05.956Z,31.40
2017-11-15T12:35:33.580Z,32.78
2017-11-15T12:38:00.408Z,39.40
2017-11-15T12:40:27.121Z,29.92
2017-11-15T12:42:55.061Z,33.08
2017-11-15T12:45:21.285Z,42.00
2017-11-15T12:47:48.025Z,41.47
2017-11-15T12:50:14.998Z,35.50
2017-11-15T12:52:43.781Z,34.22
2017-11-15T12:55:10.787Z,36.90
2017-11-15T12:57:37.223Z,35.63
2017-11-15T13:00:04.276Z,41.20
2017-11-15T13:02:31.981Z,35.10
2017-11-15T13:04:59.660Z,35.88
2017-11-15T13:07:25.938Z,35.40
2017-11-15T13:09:52.773Z,36.65
2017-11-15T13:12:20.368Z,32.25
2017-11-15T13:24:38.043Z,28.38
2017-11-15T13:27:05.667Z,31.65
2017-11-15T13:29:32.855Z,33.75
2017-11-15T13:32:04.241Z,45.85
2017-11-15T13:34:30.458Z,37.05
2017-11-15T13:36:56.684Z,33.15
2017-11-15T13:39:22.913Z,27.95
2017-11-15T13:41:49.648Z,30.83
2017-11-15T13:44:16.672Z,33.30
2017-11-15T13:46:44.178Z,29.90
2017-11-15T13:49:10.527Z,27.20
2017-11-15T13:51:37.312Z,35.50
2017-11-15T13:54:04.271Z,28.60
2017-11-15T13:56:31.972Z,33.05
2017-11-15T13:58:58.419Z,33.65
2017-11-15T14:01:26.093Z,27.48
2017-11-15T14:03:53.177Z,32.42
2017-11-15T14:06:19.425Z,36.35
2017-11-15T14:08:46.681Z,31.75
2017-11-15T14:11:13.716Z,29.63
2017-11-15T14:13:40.750Z,30.90
2017-11-15T14:16:09.633Z,31.80
2017-11-15T14:18:36.576Z,33.30
2017-11-15T14:21:03.324Z,32.35
2017-11-15T14:23:30.490Z,32.40
2017-11-15T14:25:57.299Z,31.05
2017-11-15T14:28:24.276Z,41.92
2017-11-15T14:30:50.770Z,35.10
2017-11-15T14:33:17.860Z,33.63
2017-11-15T14:35:45.458Z,31.45
2017-11-15T14:38:13.462Z,37.85
2017-11-15T14:40:39.870Z,30.17
2017-11-15T14:43:06.189Z,31.65
2017-11-15T14:45:32.449Z,37.25
2017-11-15T14:48:00.087Z,35.85
2017-11-15T14:50:26.400Z,34.97
2017-11-15T14:52:52.817Z,29.83
2017-11-15T14:55:19.729Z,30.55
2017-11-15T14:57:46.798Z,31.70
2017-11-15T15:00:13.095Z,30.83
2017-11-15T15:02:40.092Z,32.05
2017-11-15T15:05:07.446Z,33.55
2017-11-15T15:07:34.269Z,34.20
2017-11-15T15:10:01.507Z,24.85
2017-11-15T15:12:27.898Z,34.20
2017-11-15T15:14:56.040Z,32.25
2017-11-15T15:17:22.812Z,46.45
2017-11-15T15:19:49.410Z,29.70
2017-11-15T15:22:17.256Z,32.00
2017-11-15T15:24:45.232Z,27.00
2017-11-15T15:27:12.121Z,34.63
2017-11-15T15:29:39.090Z,35.88
2017-11-15T15:32:06.452Z,36.47
2017-11-15T15:34:33.537Z,32.42
2017-11-15T15:37:00.595Z,35.33
2017-11-15T15:39:28.262Z,29.75
2017-11-15T15:41:54.831Z,33.58
2017-11-15T15:44:21.242Z,35.33
2017-11-15T15:46:47.682Z,36.05
2017-11-15T15:49:15.011Z,37.13
2017-11-15T15:51:41.392Z,33.17
2017-11-15T15:54:07.651Z,38.33
2017-11-15T15:56:34.649Z,40.33
2017-11-15T15:59:01.626Z,36.17
2017-11-15T16:01:28.517Z,33.28
2017-11-15T16:03:55.131Z,33.20
2017-11-15T16:06:22.270Z,39.72
2017-11-15T16:08:49.637Z,33.95
2017-11-15T16:11:16.975Z,33.20
2017-11-15T16:13:44.295Z,36.92
2017-11-15T16:16:12.889Z,34.30
2017-11-15T16:18:40.129Z,34.15
2017-11-15T16:21:07.709Z,28.12
2017-11-15T16:23:35.598Z,42.00
2017-11-15T16:26:02.337Z,42.88
2017-11-15T16:28:29.937Z,37.08
2017-11-15T16:30:56.828Z,39.42
2017-11-15T16:33:23.781Z,38.70
2017-11-15T16:35:50.522Z,35.55
2017-11-15T16:38:17.788Z,37.92
2017-11-15T16:40:45.532Z,33.63
2017-11-15T16:43:12.349Z,30.55
2017-11-15T16:45:39.563Z,36.38
2017-11-15T16:48:06.729Z,29.42
2017-11-15T16:50:32.940Z,32.83
2017-11-15T16:52:59.789Z,33.80
2017-11-15T16:55:26.017Z,34.00
2017-11-15T16:57:52.204Z,35.63
2017-11-15T17:00:19.092Z,34.67
2017-11-15T17:02:45.940Z,37.78
2017-11-15T17:05:13.497Z,35.08
2017-11-15T17:07:40.491Z,34.05
2017-11-15T17:10:07.309Z,31.50
2017-11-15T17:12:33.543Z,40.90
2017-11-15T17:14:59.751Z,45.22
2017-11-15T17:17:27.538Z,47.85
2017-11-15T17:19:54.961Z,36.28
2017-11-15T17:22:22.495Z,33.63
2017-11-15T17:24:49.045Z,40.72
2017-11-15T17:27:16.057Z,32.05
2017-11-15T17:29:42.929Z,25.42
2017-11-15T17:32:09.191Z,35.33
2017-11-15T17:34:35.707Z,38.28
2017-11-15T17:37:02.685Z,31.87
2017-11-15T17:39:28.915Z,37.08
2017-11-15T17:41:55.685Z,25.85
2017-11-15T17:44:21.995Z,23.85
2017-11-15T17:46:48.815Z,25.15
2017-11-15T17:49:15.222Z,27.55
2017-11-15T17:51:41.908Z,29.27
2017-11-15T17:54:10.141Z,25.90
2017-11-15T17:56:37.202Z,25.37
2017-11-15T17:59:03.439Z,25.75
2017-11-15T18:01:30.104Z,25.67
2017-11-15T18:03:57.784Z,19.62
2017-11-15T18:06:24.007Z,19.25
2017-11-15T18:08:50.713Z,20.35
2017-11-15T18:11:18.235Z,22.00
2017-11-15T18:13:46.676Z,20.25
2017-11-15T18:16:13.423Z,23.15
2017-11-15T18:18:40.164Z,23.35
2017-11-15T18:21:06.883Z,27.27
2017-11-15T18:23:35.062Z,23.00
2017-11-15T18:26:02.773Z,20.10
2017-11-15T18:28:30.253Z,18.35
2017-11-15T18:30:56.556Z,20.05
2017-11-15T18:33:23.605Z,24.52
2017-11-15T18:35:50.629Z,21.60
2017-11-15T18:38:17.562Z,24.00
2017-11-15T18:40:44.190Z,19.75
2017-11-15T18:43:11.210Z,25.52
2017-11-15T18:45:38.057Z,23.08
2017-11-15T18:48:04.736Z,20.12
2017-11-15T18:50:32.316Z,21.83
2017-11-15T18:53:00.310Z,20.90
2017-11-15T18:55:26.850Z,17.85
2017-11-15T18:57:54.451Z,18.92
2017-11-15T19:00:21.633Z,20.50
2017-11-15T19:02:48.705Z,18.83
2017-11-15T19:05:15.462Z,19.92
2017-11-15T19:07:42.824Z,20.42
2017-11-15T19:10:10.866Z,21.27
2017-11-15T19:12:37.492Z,20.33
2017-11-15T19:15:05.075Z,18.55
2017-11-15T19:17:32.034Z,17.27
2017-11-15T19:19:59.569Z,24.83
2017-11-15T19:22:26.345Z,24.12
2017-11-15T19:24:53.612Z,20.92
2017-11-15T19:27:20.649Z,22.55
2017-11-15T19:29:46.931Z,25.00
2017-11-15T19:32:13.204Z,25.73
2017-11-15T19:34:40.411Z,24.45
2017-11-15T19:37:07.951Z,24.40
2017-11-15T19:39:35.367Z,22.77
2017-11-15T19:42:02.475Z,21.95
2017-11-15T19:44:29.187Z,24.35
2017-11-15T19:46:56.753Z,23.50
2017-11-15T19:49:24.196Z,28.90
2017-11-15T19:51:50.463Z,27.70
2017-11-15T19:54:17.679Z,27.20
2017-11-15T19:56:45.070Z,27.70
2017-11-15T19:59:12.458Z,23.65
2017-11-15T20:01:39.453Z,25.27
2017-11-15T20:04:07.062Z,30.08
2017-11-15T20:06:34.511Z,24.37
2017-11-15T20:09:02.569Z,23.45
2017-11-15T20:11:28.944Z,31.95
2017-11-15T20:13:55.197Z,28.67
2017-11-15T20:16:22.874Z,30.75
2017-11-15T20:18:49.658Z,29.95
2017-11-15T20:21:16.676Z,26.40
2017-11-15T20:23:42.928Z,32.20
2017-11-15T20:26:09.585Z,29.73
2017-11-15T20:28:37.139Z,32.13
2017-11-15T20:31:04.740Z,25.90
2017-11-15T20:33:32.800Z,26.17
2017-11-15T20:36:00.822Z,32.90
2017-11-15T20:38:27.449Z,24.67
2017-11-15T20:40:54.644Z,34.45
2017-11-15T20:43:21.647Z,28.73
2017-11-15T20:45:48.952Z,39.10
2017-11-15T21:01:17.173Z,29.48
2017-11-15T21:03:43.941Z,33.45
2017-11-15T21:06:11.712Z,23.23
2017-11-15T21:08:38.837Z,23.80
2017-11-15T21:11:06.889Z,23.85
2017-11-15T21:23:20.154Z,26.48
2017-11-15T21:25:46.744Z,27.30
2017-11-15T21:28:14.887Z,26.98
2017-11-15T21:30:42.636Z,28.75
2017-11-15T21:33:10.833Z,24.83
2017-11-15T21:35:37.522Z,25.23
2017-11-15T21:38:06.299Z,32.75
2017-11-15T21:40:33.872Z,35.28
2017-11-15T21:43:00.659Z,27.42
2017-11-15T21:45:27.555Z,32.13
2017-11-15T21:47:53.799Z,36.88
2017-11-15T21:50:20.685Z,34.83
2017-11-15T21:52:47.312Z,27.95
2017-11-15T21:55:14.170Z,38.38
2017-11-15T21:57:41.191Z,33.85
2017-11-15T22:00:09.395Z,33.45
2017-11-15T22:02:36.246Z,29.02
2017-11-15T22:05:04.787Z,33.95
2017-11-15T22:07:31.592Z,30.83
2017-11-15T22:09:59.874Z,24.10
2017-11-15T22:12:26.877Z,25.50
2017-11-15T22:14:57.829Z,32.53
2017-11-15T22:17:24.299Z,23.90
2017-11-15T22:19:51.188Z,26.60
2017-11-15T22:22:21.558Z,34.72
2017-11-15T22:24:48.803Z,31.92
2017-11-15T22:27:16.315Z,27.02
2017-11-15T22:29:42.807Z,27.48
2017-11-15T22:32:11.220Z,22.33
2017-11-15T22:34:39.166Z,24.92
2017-11-15T22:37:07.855Z,24.23
2017-11-15T22:39:35.240Z,20.92
2017-11-15T22:42:04.288Z,21.45
2017-11-15T22:54:15.837Z,22.60
2017-11-15T22:56:44.516Z,19.50
2017-11-15T22:59:12.057Z,24.10
2017-11-15T23:01:39.716Z,23.90
2017-11-15T23:04:07.765Z,21.15
2017-11-15T23:06:34.758Z,29.50
2017-11-15T23:18:46.692Z,19.55
2017-11-15T23:31:04.673Z,25.05
2017-11-15T23:33:31.542Z,20.37
2017-11-15T23:36:00.974Z,23.45
2017-11-15T23:38:27.695Z,19.90
2017-11-15T23:40:53.906Z,23.08
2017-11-15T23:43:21.455Z,16.92
2017-11-15T23:45:49.382Z,23.23
2017-11-15T23:48:15.671Z,20.65
2017-11-15T23:50:43.134Z,20.58
2017-11-15T23:53:10.131Z,16.55
2017-11-15T23:55:37.401Z,20.48
2017-11-15T23:58:04.382Z,19.48
